Time;durP1;ratioP1;P1;durP2;ratioP2;P2;SDS_P1;SDS_P2;PMS_P1;PMS_P2;Temp;Humidity;BMP_temperature;BMP_pressure;BME280_temperature;BME280_humidity;BME280_pressure;Samples;Min_cycle;Max_cycle;Signal;HPM_P1;HPM_P2
2021/12/25 00:05:13;;;;;;;13.15;8.10;;;;;;;10.51;100.00;98483.16;5135734;27;20071;-95
2021/12/25 00:07:40;;;;;;;15.23;8.13;;;;;;;10.39;100.00;98457.84;5123393;27;20078;-96
2021/12/25 00:10:08;;;;;;;15.48;8.50;;;;;;;10.33;100.00;98453.56;5137528;27;20088;-95
2021/12/25 00:12:34;;;;;;;14.70;8.07;;;;;;;10.41;100.00;98464.84;5122730;27;20039;-93
2021/12/25 00:15:00;;;;;;;16.25;8.63;;;;;;;10.38;100.00;98448.09;5121359;28;20043;-94
2021/12/25 00:20:48;;;;;;;14.15;7.95;;;;;;;10.40;100.00;98455.09;5120045;28;20027;-95
2021/12/25 00:23:15;;;;;;;14.82;8.10;;;;;;;10.38;100.00;98446.31;5132651;27;20049;-95
2021/12/25 00:25:47;;;;;;;18.05;7.63;;;;;;;10.42;100.00;98458.59;5139432;27;20047;-95
2021/12/25 00:34:56;;;;;;;17.15;7.80;;;;;;;10.34;100.00;98431.38;5063403;28;20040;-94
2021/12/25 00:37:23;;;;;;;15.07;7.97;;;;;;;10.29;100.00;98425.34;5075058;28;20041;-93
2021/12/25 00:39:51;;;;;;;14.07;7.30;;;;;;;10.25;100.00;98413.03;5075142;28;20292;-95
2021/12/25 00:42:17;;;;;;;15.05;6.93;;;;;;;10.24;100.00;98422.81;5075342;28;20098;-95
2021/12/25 00:44:43;;;;;;;15.80;7.82;;;;;;;10.30;100.00;98421.78;5074181;28;20041;-95
2021/12/25 00:50:32;;;;;;;14.57;7.15;;;;;;;10.53;100.00;98433.47;5074189;28;20036;-94
2021/12/25 00:52:58;;;;;;;13.73;7.20;;;;;;;10.51;100.00;98427.31;5074686;28;20044;-95
2021/12/25 00:55:25;;;;;;;17.02;7.28;;;;;;;10.37;100.00;98412.69;5074298;28;20049;-94
2021/12/25 00:57:51;;;;;;;13.80;7.20;;;;;;;10.40;100.00;98431.19;5074772;28;20104;-95
2021/12/25 01:03:39;;;;;;;15.45;6.97;;;;;;;10.35;100.00;98422.50;5058285;28;20381;-93
2021/12/25 01:06:07;;;;;;;13.82;7.75;;;;;;;10.30;100.00;98412.91;5073818;28;20116;-94
2021/12/25 01:08:33;;;;;;;12.80;7.13;;;;;;;10.36;100.00;98415.38;5073985;28;20502;-93
2021/12/25 01:10:59;;;;;;;13.02;7.40;;;;;;;10.31;100.00;98426.16;5073656;28;20045;-94
2021/12/25 01:13:29;;;;;;;15.93;8.70;;;;;;;10.36;100.00;98434.00;5072867;28;20048;-93
2021/12/25 01:35:20;;;;;;;16.85;8.80;;;;;;;10.04;100.00;98434.06;5113722;28;20396;-93
2021/12/25 01:37:59;;;;;;;17.02;8.15;;;;;;;10.10;100.00;98445.41;5099904;28;20044;-93
2021/12/25 01:50:10;;;;;;;17.98;8.52;;;;;;;10.07;100.00;98441.06;5132023;28;20528;-95
2021/12/25 01:52:36;;;;;;;16.98;8.60;;;;;;;10.08;100.00;98432.16;5131506;27;20178;-93
2021/12/25 01:55:06;;;;;;;15.73;7.88;;;;;;;10.14;100.00;98444.41;5129235;27;20039;-94
2021/12/25 01:57:34;;;;;;;17.38;8.40;;;;;;;10.05;100.00;98425.16;5129427;28;20075;-94
2021/12/25 02:00:06;;;;;;;21.70;9.40;;;;;;;10.00;100.00;98411.16;5129365;27;20041;-94
2021/12/25 02:02:32;;;;;;;20.27;9.07;;;;;;;10.20;100.00;98428.28;5130954;27;20039;-93
2021/12/25 02:04:58;;;;;;;20.80;9.43;;;;;;;10.06;100.00;98395.03;5130934;27;20035;-93
2021/12/25 02:07:25;;;;;;;16.83;8.80;;;;;;;10.19;100.00;98432.72;5128457;28;20093;-94
2021/12/25 02:09:51;;;;;;;25.25;9.13;;;;;;;10.09;100.00;98404.69;5129024;27;20035;-94
2021/12/25 02:12:17;;;;;;;19.08;9.52;;;;;;;10.13;100.00;98405.44;5135151;27;20458;-95
2021/12/25 02:14:46;;;;;;;17.08;9.60;;;;;;;10.06;100.00;98388.81;5121501;27;20502;-93
2021/12/25 02:20:47;;;;;;;15.57;8.02;;;;;;;10.18;100.00;98393.75;5127197;28;20027;-94
2021/12/25 02:23:19;;;;;;;19.15;9.48;;;;;;;10.16;100.00;98390.28;5122286;27;20048;-93
2021/12/25 02:25:45;;;;;;;16.38;8.48;;;;;;;10.18;100.00;98377.81;5139084;27;20133;-93
2021/12/25 02:28:14;;;;;;;17.95;8.75;;;;;;;10.26;100.00;98385.56;5132615;27;20040;-95
2021/12/25 02:34:32;;;;;;;19.33;8.07;;;;;;;10.35;100.00;98385.28;5134291;28;19915;-95
2021/12/25 02:36:59;;;;;;;17.67;8.07;;;;;;;10.19;100.00;98371.59;5122962;27;20101;-94
2021/12/25 02:39:25;;;;;;;18.15;8.75;;;;;;;10.25;100.00;98373.19;5120294;28;20104;-94
2021/12/25 02:41:51;;;;;;;16.30;8.60;;;;;;;10.29;100.00;98382.81;5114018;28;20486;-95
2021/12/25 02:44:17;;;;;;;15.48;8.80;;;;;;;10.20;100.00;98364.50;5113730;28;20052;-93
2021/12/25 02:50:05;;;;;;;17.90;8.00;;;;;;;10.27;100.00;98369.53;5124663;28;20541;-95
2021/12/25 02:52:32;;;;;;;15.82;8.52;;;;;;;10.23;100.00;98367.03;5131759;27;20513;-95
2021/12/25 02:54:58;;;;;;;16.65;8.45;;;;;;;10.16;100.00;98352.22;5114043;28;20089;-95
2021/12/25 02:57:24;;;;;;;15.73;8.18;;;;;;;10.30;100.00;98371.28;5108157;28;20043;-94
2021/12/25 02:59:50;;;;;;;16.80;8.25;;;;;;;10.27;100.00;98350.94;5121373;27;20040;-93
2021/12/25 03:05:38;;;;;;;17.50;8.75;;;;;;;10.34;100.00;98354.31;5120332;28;20389;-92
2021/12/25 03:08:08;;;;;;;16.73;8.07;;;;;;;10.29;100.00;98337.66;5100928;28;20044;-94
2021/12/25 03:10:35;;;;;;;17.90;8.60;;;;;;;10.41;100.00;98345.22;5113582;28;20083;-96
2021/12/25 03:13:17;;;;;;;16.25;8.45;;;;;;;10.39;100.00;98336.44;5114986;28;20048;-94
2021/12/25 03:19:33;;;;;;;17.05;7.93;;;;;;;10.46;100.00;98347.72;5099135;28;20028;-95
2021/12/25 03:22:00;;;;;;;18.75;8.30;;;;;;;10.32;100.00;98332.22;5100222;28;20070;-95
2021/12/25 03:24:28;;;;;;;19.15;8.00;;;;;;;10.39;100.00;98335.56;5099359;28;20047;-95
2021/12/25 03:26:56;;;;;;;16.38;8.73;;;;;;;10.50;100.00;98332.56;5117401;28;20040;-95
2021/12/25 03:29:22;;;;;;;14.85;8.18;;;;;;;10.44;100.00;98331.81;5121958;28;20071;-95
2021/12/25 03:35:10;;;;;;;21.60;7.18;;;;;;;10.54;100.00;98334.16;5121833;28;20114;-93
2021/12/25 03:37:36;;;;;;;14.77;7.47;;;;;;;10.46;100.00;98316.69;5120327;28;20484;-92
2021/12/25 03:40:04;;;;;;;14.13;7.35;;;;;;;10.53;100.00;98327.97;5100772;27;20135;-94
2021/12/25 03:42:30;;;;;;;13.98;7.47;;;;;;;10.47;100.00;98314.88;5099637;28;20044;-94
2021/12/25 03:44:56;;;;;;;16.45;7.43;;;;;;;10.42;100.00;98309.72;5099038;28;20472;-93
2021/12/25 03:59:32;;;;;;;11.65;6.32;;;;;;;10.58;100.00;98298.56;5156902;27;20377;-95
2021/12/25 04:05:25;;;;;;;13.90;6.68;;;;;;;10.57;100.00;98302.16;5156234;27;20114;-94
2021/12/25 04:10:43;;;;;;;14.15;7.40;;;;;;;10.45;100.00;98274.19;5135927;27;20124;-94
2021/12/25 04:13:12;;;;;;;13.55;7.07;;;;;;;10.55;100.00;98296.03;5136199;27;20554;-94
2021/12/25 04:19:33;;;;;;;17.00;7.10;;;;;;;10.68;100.00;98300.00;5136341;28;20031;-94
2021/12/25 04:22:04;;;;;;;14.88;7.38;;;;;;;10.51;100.00;98289.94;5136266;28;20054;-93
2021/12/25 04:24:34;;;;;;;17.50;7.22;;;;;;;10.55;100.00;98280.94;5136067;27;20118;-94
2021/12/25 04:27:05;;;;;;;15.73;7.07;;;;;;;10.64;100.00;98275.28;5135304;27;20043;-93
2021/12/25 04:29:38;;;;;;;15.40;7.03;;;;;;;10.63;100.00;98275.38;5135785;27;20035;-93
2021/12/25 05:05:28;;;;;;;15.32;6.72;;;;;;;10.74;100.00;98275.84;5094332;27;20397;-94
2021/12/25 05:07:54;;;;;;;15.95;6.75;;;;;;;10.75;100.00;98272.25;5095240;28;20055;-93
2021/12/25 05:10:20;;;;;;;10.18;6.30;;;;;;;10.79;100.00;98287.19;5094593;28;20402;-94
2021/12/25 05:12:46;;;;;;;11.80;6.15;;;;;;;10.76;100.00;98276.66;5094642;28;20044;-92
2021/12/25 05:21:57;;;;;;;12.57;5.60;;;;;;;10.80;100.00;98275.63;5097335;28;20486;-94
2021/12/25 05:24:23;;;;;;;14.77;6.70;;;;;;;10.82;100.00;98291.53;5095266;28;20135;-93
2021/12/25 05:26:48;;;;;;;13.00;6.50;;;;;;;10.80;100.00;98286.28;5095968;28;20072;-94
2021/12/25 05:29:22;;;;;;;16.27;6.43;;;;;;;10.75;100.00;98288.22;5098648;28;20028;-91
2021/12/25 05:35:11;;;;;;;12.75;6.57;;;;;;;10.61;100.00;98274.56;5097557;28;20067;-93
2021/12/25 05:37:38;;;;;;;13.63;7.03;;;;;;;10.60;100.00;98280.78;5097629;28;20072;-92
2021/12/25 05:40:06;;;;;;;15.35;7.22;;;;;;;10.48;100.00;98280.28;5096268;28;20040;-94
2021/12/25 05:42:32;;;;;;;13.25;6.65;;;;;;;10.46;100.00;98287.44;5098232;28;20048;-94
2021/12/25 05:44:59;;;;;;;11.07;6.05;;;;;;;10.40;100.00;98276.16;5094740;28;20028;-93
2021/12/25 05:50:46;;;;;;;12.77;6.00;;;;;;;10.49;100.00;98283.81;5086275;28;20118;-92
2021/12/25 05:53:14;;;;;;;21.80;6.55;;;;;;;10.47;100.00;98280.34;5094766;28;20079;-96
2021/12/25 05:55:40;;;;;;;13.93;6.70;;;;;;;10.38;100.00;98270.88;5096208;28;20020;-93
2021/12/25 05:58:07;;;;;;;14.70;6.70;;;;;;;10.40;100.00;98268.19;5095220;28;20119;-92
2021/12/25 06:04:31;;;;;;;10.93;6.13;;;;;;;10.56;100.00;98289.78;5085655;28;20064;-94
2021/12/25 06:06:57;;;;;;;12.52;6.47;;;;;;;10.35;100.00;98265.69;5088512;28;20375;-92
2021/12/25 06:09:25;;;;;;;13.00;6.78;;;;;;;10.51;100.00;98286.44;5094441;28;20129;-92
2021/12/25 06:11:51;;;;;;;11.43;6.00;;;;;;;10.45;100.00;98263.56;5093857;28;20064;-93
2021/12/25 06:14:19;;;;;;;17.15;6.68;;;;;;;10.49;100.00;98273.19;5094709;28;20505;-93
2021/12/25 06:20:08;;;;;;;15.40;6.90;;;;;;;10.32;100.00;98256.94;5081612;28;20028;-92
2021/12/25 06:22:34;;;;;;;14.75;7.05;;;;;;;10.44;100.00;98268.03;5081357;28;20061;-95
2021/12/25 06:25:02;;;;;;;12.20;6.93;;;;;;;10.31;100.00;98257.88;5080325;28;20047;-95
2021/12/25 06:27:28;;;;;;;15.07;6.80;;;;;;;10.31;100.00;98253.44;5079814;28;20048;-95
2021/12/25 06:29:54;;;;;;;10.88;6.35;;;;;;;10.37;100.00;98266.50;5080584;28;20096;-95
2021/12/25 06:35:42;;;;;;;11.20;6.07;;;;;;;10.28;100.00;98246.41;5072212;28;20036;-93
2021/12/25 06:38:11;;;;;;;10.10;6.43;;;;;;;10.28;100.00;98241.09;5080426;28;20044;-93
2021/12/25 06:40:38;;;;;;;12.75;6.72;;;;;;;10.40;100.00;98263.72;5080408;28;20044;-94
2021/12/25 06:43:04;;;;;;;12.27;6.70;;;;;;;10.41;100.00;98259.28;5080452;28;20056;-93
2021/12/25 06:49:31;;;;;;;16.30;7.30;;;;;;;10.46;100.00;98268.84;5059421;28;20033;-93
2021/12/25 06:51:59;;;;;;;12.40;6.30;;;;;;;10.37;100.00;98242.59;5059576;28;20033;-94
2021/12/25 06:54:24;;;;;;;11.98;6.97;;;;;;;10.44;100.00;98254.72;5061268;28;20041;-92
2021/12/25 06:56:53;;;;;;;12.57;7.45;;;;;;;10.45;100.00;98248.50;5078501;28;20490;-92
2021/12/25 06:59:21;;;;;;;13.40;7.57;;;;;;;10.36;100.00;98229.34;5078976;28;20497;-96
2021/12/25 07:05:09;;;;;;;17.88;8.07;;;;;;;10.52;100.00;98246.50;5078441;28;20048;-95
2021/12/25 07:07:37;;;;;;;14.55;7.68;;;;;;;10.58;100.00;98258.69;5079314;28;20131;-94
2021/12/25 07:10:04;;;;;;;14.67;7.13;;;;;;;10.55;100.00;98251.69;5079251;28;20041;-96
2021/12/25 07:12:36;;;;;;;20.77;8.32;;;;;;;10.51;100.00;98239.44;5079325;28;20108;-95
2021/12/25 07:18:24;;;;;;;17.27;7.63;;;;;;;10.56;100.00;98247.25;5080597;28;20089;-96
2021/12/25 07:20:51;;;;;;;17.58;8.30;;;;;;;10.63;100.00;98249.66;5080401;28;20068;-95
2021/12/25 07:23:19;;;;;;;16.92;7.30;;;;;;;10.50;100.00;98228.88;5079992;28;20040;-95
2021/12/25 07:25:45;;;;;;;14.68;6.95;;;;;;;10.54;100.00;98235.78;5079750;28;20041;-94
2021/12/25 07:28:13;;;;;;;16.63;7.85;;;;;;;10.59;100.00;98236.50;5079768;28;20052;-95
2021/12/25 07:34:32;;;;;;;17.92;8.45;;;;;;;10.79;100.00;98252.63;5060693;28;20487;-96
2021/12/25 07:36:59;;;;;;;14.48;7.65;;;;;;;10.69;100.00;98238.78;5069559;28;20040;-94
2021/12/25 07:39:24;;;;;;;14.63;7.35;;;;;;;10.77;100.00;98229.66;5083482;28;20053;-96
2021/12/25 07:41:50;;;;;;;16.90;8.88;;;;;;;10.86;100.00;98255.91;5081205;28;20173;-95
2021/12/25 07:44:19;;;;;;;14.48;7.45;;;;;;;10.72;100.00;98231.63;5081427;28;20186;-95
2021/12/25 07:50:20;;;;;;;17.45;7.07;;;;;;;10.81;100.00;98218.84;5081690;28;20056;-96
2021/12/25 07:52:47;;;;;;;15.43;8.82;;;;;;;10.90;100.00;98244.25;5082398;28;20076;-95
2021/12/25 07:55:15;;;;;;;18.00;10.50;;;;;;;10.75;100.00;98219.06;5082628;28;20052;-96
2021/12/25 07:57:40;;;;;;;18.35;8.60;;;;;;;10.78;100.00;98229.63;5082829;28;20078;-95
2021/12/25 08:06:52;;;;;;;16.60;7.78;;;;;;;10.71;100.00;98200.63;5082880;28;20052;-96
2021/12/25 08:09:27;;;;;;;16.80;7.68;;;;;;;10.79;100.00;98212.72;5081703;28;20131;-93
2021/12/25 08:11:54;;;;;;;16.25;7.65;;;;;;;10.81;100.00;98213.53;5067426;28;20044;-96
2021/12/25 08:14:23;;;;;;;16.60;7.50;;;;;;;10.77;100.00;98203.06;5083856;28;20040;-96
2021/12/25 08:20:11;;;;;;;19.27;8.20;;;;;;;10.87;100.00;98213.31;5083113;28;20028;-95
2021/12/25 08:22:40;;;;;;;17.35;8.15;;;;;;;10.91;100.00;98216.72;5082836;28;20106;-96
2021/12/25 08:25:08;;;;;;;19.52;8.95;;;;;;;10.75;100.00;98204.91;5083065;28;20382;-94
2021/12/25 08:27:35;;;;;;;17.85;8.85;;;;;;;10.85;100.00;98225.78;5082925;28;20044;-95
2021/12/25 08:36:45;;;;;;;14.38;8.45;;;;;;;10.89;100.00;98211.47;5081588;28;20043;-92
2021/12/25 08:39:13;;;;;;;16.05;8.60;;;;;;;10.94;100.00;98218.41;5074342;28;20036;-96
2021/12/25 08:41:39;;;;;;;17.70;8.70;;;;;;;10.88;100.00;98211.50;5081147;28;20044;-95
2021/12/25 08:44:19;;;;;;;15.60;7.95;;;;;;;10.83;100.00;98202.84;5079600;28;20049;-96
2021/12/25 08:50:28;;;;;;;13.70;8.82;;;;;;;10.93;100.00;98219.31;5082589;28;20060;-94
2021/12/25 08:52:56;;;;;;;16.88;9.32;;;;;;;10.85;100.00;98198.34;5086075;28;20040;-93
2021/12/25 08:55:24;;;;;;;17.98;10.30;;;;;;;10.95;100.00;98217.47;5085565;28;20047;-94
2021/12/25 08:57:50;;;;;;;16.95;8.85;;;;;;;10.91;100.00;98214.06;5085913;28;20108;-95
2021/12/25 09:07:00;;;;;;;17.98;8.63;;;;;;;10.92;100.00;98206.94;5066789;28;20136;-96
2021/12/25 09:09:25;;;;;;;15.77;8.98;;;;;;;10.90;100.00;98199.88;5083381;28;20040;-94
2021/12/25 09:11:53;;;;;;;17.25;8.80;;;;;;;11.07;100.00;98225.00;5080891;28;20114;-94
2021/12/25 09:14:20;;;;;;;15.60;9.10;;;;;;;10.88;100.00;98192.88;5082794;28;20382;-92
2021/12/25 09:20:09;;;;;;;18.85;9.25;;;;;;;11.02;100.00;98213.66;5083358;28;20025;-95
2021/12/25 09:22:38;;;;;;;18.95;9.27;;;;;;;11.01;100.00;98211.91;5082680;28;20068;-95
2021/12/25 09:25:07;;;;;;;19.92;9.60;;;;;;;10.95;100.00;98205.06;5077870;28;20045;-95
2021/12/25 09:27:36;;;;;;;;;;;;;;;11.17;100.00;98231.72;5084084;28;20048;-95
2021/12/25 09:33:25;;;;;;;12.45;7.72;;;;;;;10.99;100.00;98195.16;5061288;28;20032;-95
2021/12/25 09:35:52;;;;;;;15.07;9.48;;;;;;;11.02;100.00;98182.59;5076957;28;20037;-94
2021/12/25 09:38:19;;;;;;;12.57;7.55;;;;;;;11.04;100.00;98178.09;5083048;28;20051;-96
2021/12/25 09:40:45;;;;;;;14.90;8.32;;;;;;;11.04;100.00;98195.84;5080986;28;20049;-95
2021/12/25 09:43:13;;;;;;;14.98;9.35;;;;;;;11.13;100.00;98205.28;5077519;28;20041;-95
2021/12/25 09:49:32;;;;;;;13.73;8.05;;;;;;;11.27;100.00;98205.59;5078575;28;20036;-95
2021/12/25 09:51:59;;;;;;;14.63;8.70;;;;;;;11.17;100.00;98193.56;5086320;28;20066;-96
2021/12/25 09:54:27;;;;;;;15.57;9.27;;;;;;;11.17;100.00;98186.47;5085963;28;20049;-95
2021/12/25 09:56:57;;;;;;;17.30;8.32;;;;;;;11.21;100.00;98193.41;5084714;28;20049;-94
2021/12/25 09:59:25;;;;;;;15.50;8.85;;;;;;;11.08;100.00;98174.38;5083942;28;20051;-94
2021/12/25 10:05:23;;;;;;;17.38;9.63;;;;;;;11.08;100.00;98177.06;5083961;28;20032;-95
2021/12/25 10:08:04;;;;;;;13.48;8.18;;;;;;;11.03;100.00;98170.16;5083700;28;20127;-94
2021/12/25 10:10:40;;;;;;;13.88;8.40;;;;;;;10.96;100.00;98176.66;5084847;28;20087;-96
2021/12/25 10:13:18;;;;;;;13.98;8.55;;;;;;;11.10;100.00;98200.91;5085024;28;20048;-95
2021/12/25 10:19:35;;;;;;;13.07;7.55;;;;;;;11.11;100.00;98210.66;5084923;28;20102;-96
2021/12/25 10:22:05;;;;;;;14.35;8.23;;;;;;;11.05;100.00;98202.91;5064668;28;20108;-96
2021/12/25 10:24:41;;;;;;;14.88;9.05;;;;;;;10.98;100.00;98188.09;5077958;28;20040;-94
2021/12/25 10:27:13;;;;;;;16.00;8.65;;;;;;;10.90;100.00;98178.59;5080375;28;20040;-95
2021/12/25 10:29:39;;;;;;;15.73;8.80;;;;;;;10.88;100.00;98183.09;5081729;28;20047;-95
2021/12/25 10:42:17;;;;;;;15.73;8.20;;;;;;;10.87;100.00;98173.41;5079573;28;20029;-94
2021/12/25 10:44:45;;;;;;;14.60;8.65;;;;;;;10.93;100.00;98182.06;5079262;28;20622;-94
2021/12/25 10:50:36;;;;;;;18.92;10.07;;;;;;;10.92;100.00;98175.03;5077936;28;20218;-94
2021/12/25 10:53:20;;;;;;;16.33;9.00;;;;;;;10.96;100.00;98164.22;5078956;28;20044;-92
2021/12/25 10:55:46;;;;;;;13.07;8.80;;;;;;;10.94;100.00;98154.56;5078757;28;20040;-93
2021/12/25 10:58:19;;;;;;;14.38;8.75;;;;;;;10.87;100.00;98146.81;5078593;28;20048;-96
2021/12/25 11:15:21;;;;;;;17.27;9.35;;;;;;;10.96;100.00;98142.06;5052296;28;20045;-95
2021/12/25 11:17:51;;;;;;;;;;;;;;;10.93;100.00;98131.53;5078865;28;20500;-93
2021/12/25 11:20:27;;;;;;;12.27;7.88;;;;;;;10.86;100.00;98118.50;5076399;28;20007;-92
2021/12/25 11:22:56;;;;;;;16.90;11.00;;;;;;;10.90;100.00;98129.84;5075912;28;20079;-90
2021/12/25 11:25:25;;;;;;;16.23;9.38;;;;;;;10.82;100.00;98100.03;5077770;28;20047;-91
2021/12/25 11:27:51;;;;;;;;;;;;;;;10.84;100.00;98111.47;5078372;28;20041;-93
2021/12/25 11:37:04;;;;;;;17.38;9.48;;;;;;;10.78;100.00;98074.47;5076235;28;20032;-95
2021/12/25 11:39:31;;;;;;;14.80;9.38;;;;;;;10.87;100.00;98077.66;5077378;28;20605;-93
2021/12/25 11:42:03;;;;;;;17.35;9.80;;;;;;;10.81;100.00;98059.28;5078665;28;20044;-93
2021/12/25 11:44:30;;;;;;;16.73;9.32;;;;;;;10.87;100.00;98071.47;5077267;28;20553;-93
2021/12/25 11:46:56;;;;;;;14.38;8.40;;;;;;;10.89;100.00;98058.97;5076885;28;20071;-95
2021/12/25 11:49:22;;;;;;;15.05;8.55;;;;;;;10.85;100.00;98049.38;5077934;28;20052;-93
2021/12/25 11:51:49;;;;;;;18.10;11.27;;;;;;;10.89;100.00;98045.69;5078313;28;20048;-93
2021/12/25 11:57:47;;;;;;;17.35;9.25;;;;;;;11.00;100.00;98055.91;5096415;27;20387;-95
2021/12/25 12:13:43;;;;;;;17.38;9.63;;;;;;;11.06;100.00;98019.25;5089137;28;20559;-94
2021/12/25 12:19:45;;;;;;;14.35;8.05;;;;;;;11.01;100.00;98017.72;5094190;28;20452;-94
2021/12/25 12:25:45;;;;;;;12.40;8.23;;;;;;;11.04;100.00;98021.13;5173076;27;20250;-94
2021/12/25 12:28:07;;;;;;;17.33;10.00;;;;;;;11.01;100.00;98012.38;5130104;27;20050;-94
2021/12/25 12:34:51;;;;;;;15.40;7.82;;;;;;;11.05;100.00;98017.50;5152543;27;20035;-93
2021/12/25 12:37:26;;;;;;;15.35;9.45;;;;;;;10.94;100.00;98001.13;5151541;27;20022;-95
2021/12/25 12:40:18;;;;;;;12.20;6.85;;;;;;;11.07;100.00;98007.69;5146384;27;20046;-93
2021/12/25 12:42:53;;;;;;;12.18;7.00;;;;;;;10.85;100.00;97986.41;5155277;27;20095;-94
2021/12/25 12:45:27;;;;;;;10.73;6.32;;;;;;;10.98;100.00;97994.75;5149962;27;20051;-93
2021/12/25 12:48:14;;;;;;;11.00;7.00;;;;;;;11.07;100.00;98005.00;5142996;27;20100;-93
2021/12/25 12:50:45;;;;;;;15.45;8.77;;;;;;;10.98;100.00;98000.06;5137987;28;20043;-94
2021/12/25 12:53:14;;;;;;;11.45;7.28;;;;;;;10.97;100.00;98008.13;5142784;27;20039;-95
2021/12/25 12:55:44;;;;;;;15.25;7.80;;;;;;;10.88;100.00;97988.94;5141061;27;20059;-94
2021/12/25 12:58:17;;;;;;;11.82;7.68;;;;;;;10.98;100.00;98007.19;5138386;27;20023;-94
2021/12/25 13:14:14;;;;;;;16.23;9.40;;;;;;;10.90;100.00;97991.53;5146134;27;20048;-93
2021/12/25 13:23:25;;;;;;;19.25;10.52;;;;;;;10.92;100.00;97995.00;5132823;27;20044;-94
2021/12/25 13:25:54;;;;;;;19.50;9.93;;;;;;;10.95;100.00;98002.88;5121337;28;20035;-91
2021/12/25 13:28:22;;;;;;;22.02;10.00;;;;;;;10.85;100.00;97981.09;5129324;28;20058;-95
2021/12/25 13:48:38;;;;;;;24.00;13.50;;;;;;;10.94;100.00;97981.66;5112667;28;20031;-93
2021/12/25 13:51:05;;;;;;;22.77;14.07;;;;;;;10.81;100.00;97957.34;5112781;27;20047;-93
2021/12/25 13:53:32;;;;;;;23.35;14.73;;;;;;;10.83;100.00;97967.00;5111672;28;20122;-93
2021/12/25 13:56:09;;;;;;;24.20;15.30;;;;;;;10.86;100.00;97969.53;5116829;28;20035;-91
2021/12/25 13:58:35;;;;;;;22.30;13.32;;;;;;;10.91;100.00;97966.69;5112539;28;20041;-90
2021/12/25 14:04:24;;;;;;;19.58;11.32;;;;;;;10.90;100.00;97951.63;5113958;28;20032;-94
2021/12/25 14:06:50;;;;;;;23.05;12.68;;;;;;;10.94;100.00;97965.69;5118162;28;20063;-93
2021/12/25 14:09:16;;;;;;;20.55;12.40;;;;;;;10.84;100.00;97950.13;5119462;28;20062;-93
2021/12/25 14:11:48;;;;;;;20.02;11.77;;;;;;;10.86;100.00;97945.59;5116067;28;20070;-94
2021/12/25 14:14:14;;;;;;;20.60;13.18;;;;;;;10.91;100.00;97953.38;5117499;28;20039;-93
2021/12/25 14:23:24;;;;;;;24.42;13.48;;;;;;;10.88;100.00;97966.78;5115976;28;20047;-94
2021/12/25 14:25:54;;;;;;;22.45;13.48;;;;;;;10.92;100.00;97967.53;5109088;28;20044;-94
2021/12/25 14:28:23;;;;;;;21.35;13.10;;;;;;;10.85;100.00;97957.16;5114249;28;20043;-93
2021/12/25 14:34:47;;;;;;;17.20;10.40;;;;;;;11.03;100.00;97979.47;5119197;28;20039;-92
2021/12/25 14:37:15;;;;;;;18.02;11.95;;;;;;;10.91;100.00;97958.72;5114545;28;20043;-93
2021/12/25 14:39:42;;;;;;;24.50;14.13;;;;;;;10.98;100.00;97967.28;5118139;28;20042;-94
2021/12/25 14:42:09;;;;;;;19.38;12.88;;;;;;;10.97;100.00;97982.38;5104977;27;20500;-93
2021/12/25 14:44:35;;;;;;;17.10;11.10;;;;;;;10.94;100.00;97968.34;5107968;27;20050;-93
2021/12/25 14:50:28;;;;;;;16.35;10.32;;;;;;;11.03;100.00;97971.47;5102904;28;20472;-92
2021/12/25 14:53:06;;;;;;;17.45;11.55;;;;;;;10.92;100.00;97964.88;5119633;28;20126;-94
2021/12/25 14:55:39;;;;;;;17.42;10.50;;;;;;;11.02;100.00;97974.22;5103795;28;20047;-94
2021/12/25 14:58:11;;;;;;;20.00;13.90;;;;;;;10.96;100.00;97969.16;5106526;28;20093;-93
2021/12/25 15:07:27;;;;;;;12.73;9.32;;;;;;;11.03;100.00;97986.59;5114338;28;20028;-93
2021/12/25 15:09:55;;;;;;;18.00;11.40;;;;;;;10.95;100.00;97976.28;5119972;27;20035;-93
2021/12/25 15:12:27;;;;;;;17.37;9.63;;;;;;;10.93;100.00;97970.16;5117410;28;20038;-92
2021/12/25 15:21:21;;;;;;;19.20;10.57;;;;;;;11.01;100.00;97988.44;5075963;28;20032;-94
2021/12/25 15:23:49;;;;;;;17.70;10.55;;;;;;;11.02;100.00;97984.88;5086882;28;20059;-94
2021/12/25 15:26:17;;;;;;;22.30;11.80;;;;;;;11.02;100.00;97987.53;5081793;28;20040;-93
2021/12/25 15:28:56;;;;;;;20.05;12.77;;;;;;;11.01;100.00;97988.44;5086545;28;20041;-93
2021/12/25 15:34:50;;;;;;;24.45;14.00;;;;;;;10.89;100.00;97972.06;5085448;28;20024;-94
2021/12/25 15:37:22;;;;;;;29.83;15.77;;;;;;;10.93;100.00;97993.19;5081657;28;20514;-93
2021/12/25 15:39:49;;;;;;;20.33;13.32;;;;;;;10.84;100.00;97973.16;5075856;28;20041;-93
2021/12/25 15:42:16;;;;;;;25.15;14.43;;;;;;;10.81;100.00;97971.50;5103283;28;20043;-93
2021/12/25 15:44:45;;;;;;;24.30;15.35;;;;;;;10.91;100.00;97982.66;5116008;28;20040;-95
2021/12/25 16:07:48;;;;;;;18.15;12.73;;;;;;;10.99;100.00;98008.91;5106174;28;20044;-95
2021/12/25 16:10:15;;;;;;;15.95;11.60;;;;;;;10.95;100.00;98005.53;5111788;28;20027;-93
2021/12/25 16:12:41;;;;;;;18.67;11.73;;;;;;;10.96;100.00;98003.72;5122011;27;20129;-93
2021/12/25 16:25:13;;;;;;;20.23;12.27;;;;;;;10.98;100.00;97999.22;5105806;28;20047;-94
2021/12/25 16:27:41;;;;;;;21.85;12.43;;;;;;;10.92;100.00;97987.03;5107883;28;20048;-93
2021/12/25 16:30:10;;;;;;;19.90;13.13;;;;;;;10.84;100.00;97965.19;5130661;28;20488;-93
2021/12/25 16:32:36;;;;;;;18.48;10.68;;;;;;;10.95;100.00;97986.91;5122500;28;20043;-92
2021/12/25 16:35:03;;;;;;;21.10;11.90;;;;;;;11.00;100.00;97994.72;5128786;28;20043;-92
2021/12/25 16:37:28;;;;;;;17.50;11.15;;;;;;;10.93;100.00;97983.44;5123758;28;20043;-93
2021/12/25 16:39:54;;;;;;;20.10;12.40;;;;;;;10.95;100.00;97986.03;5122402;28;20078;-93
2021/12/25 16:42:20;;;;;;;18.25;12.20;;;;;;;10.95;100.00;97984.25;5128277;28;20067;-93
2021/12/25 16:44:48;;;;;;;20.10;12.75;;;;;;;10.99;100.00;97995.63;5114730;28;20048;-93
2021/12/25 16:50:36;;;;;;;24.35;14.40;;;;;;;10.98;100.00;97983.25;5119570;28;20035;-93
2021/12/25 16:53:03;;;;;;;25.80;13.23;;;;;;;11.07;100.00;97999.69;5133084;28;20054;-92
2021/12/25 16:55:30;;;;;;;25.90;13.73;;;;;;;11.10;100.00;98001.34;5120942;28;20095;-93
2021/12/25 16:57:56;;;;;;;25.40;14.25;;;;;;;10.90;100.00;97971.13;5118077;28;20047;-94
2021/12/25 17:04:30;;;;;;;26.85;14.70;;;;;;;11.07;100.00;97998.84;5122056;28;20036;-93
2021/12/25 17:07:00;;;;;;;28.42;15.68;;;;;;;11.02;100.00;97987.53;5122505;28;20533;-94
2021/12/25 17:09:27;;;;;;;27.98;16.15;;;;;;;11.00;100.00;97987.59;5117256;27;20523;-93
2021/12/25 17:11:53;;;;;;;34.70;16.15;;;;;;;11.02;100.00;97982.22;5122028;27;20039;-92
2021/12/25 17:14:19;;;;;;;28.27;16.52;;;;;;;11.00;100.00;97982.25;5139410;27;20092;-92
2021/12/25 17:23:29;;;;;;;31.67;18.08;;;;;;;11.02;100.00;97983.06;5134447;27;20036;-94
2021/12/25 17:25:56;;;;;;;29.35;15.90;;;;;;;11.08;100.00;98000.56;5119863;27;20134;-95
2021/12/25 17:28:22;;;;;;;32.08;16.23;;;;;;;11.08;100.00;98000.56;5126923;27;20054;-95
2021/12/25 17:34:37;;;;;;;31.92;17.55;;;;;;;11.12;100.00;97994.19;5121341;27;20032;-95
2021/12/25 17:37:03;;;;;;;31.23;16.70;;;;;;;11.07;100.00;97983.72;5118440;28;20538;-95
2021/12/25 17:39:31;;;;;;;31.48;15.88;;;;;;;11.08;100.00;97989.91;5133789;27;20381;-93
2021/12/25 17:42:00;;;;;;;35.35;18.05;;;;;;;11.09;100.00;97996.97;5127353;27;20040;-94
2021/12/25 17:44:26;;;;;;;;;;;;;;;11.14;100.00;98000.31;5140148;27;20023;-95
2021/12/25 17:50:50;;;;;;;35.35;20.85;;;;;;;11.15;100.00;98006.50;5137920;27;20548;-96
2021/12/25 17:53:16;;;;;;;41.25;20.17;;;;;;;11.06;100.00;97989.09;5135275;27;20070;-95
2021/12/25 17:55:43;;;;;;;31.45;17.83;;;;;;;11.14;100.00;98005.63;5124935;27;20032;-94
2021/12/25 17:58:10;;;;;;;30.92;17.23;;;;;;;10.97;100.00;97971.72;5121289;27;20112;-94
2021/12/25 18:14:25;;;;;;;33.03;15.98;;;;;;;11.23;100.00;97996.38;5142560;27;20114;-93
2021/12/25 18:20:16;;;;;;;34.40;17.40;;;;;;;11.08;100.00;97984.59;5125393;27;20031;-94